Time;durP1;ratioP1;P1;durP2;ratioP2;P2;SDS_P1;SDS_P2;PMS_P1;PMS_P2;Temp;Humidity;BMP_temperature;BMP_pressure;BME280_temperature;BME280_humidity;BME280_pressure;Samples;Min_cycle;Max_cycle;Signal;HPM_P1;HPM_P2
2021/12/25 00:02:05;;;;;;;155.18;50.83;;;;;;;;;;5040981;28;20056;-49
2021/12/25 00:04:31;;;;;;;125.82;44.92;;;;;;;;;;5037718;28;20033;-52
2021/12/25 00:06:56;;;;;;;142.82;41.88;;;;;;;;;;5037962;28;20103;-49
2021/12/25 00:09:22;;;;;;;126.20;42.17;;;;;;;;;;5037197;28;20072;-51
2021/12/25 00:11:47;;;;;;;138.48;45.00;;;;;;;;;;5037038;28;20409;-48
2021/12/25 00:14:13;;;;;;;122.78;42.53;;;;;;;;;;5042565;28;20036;-51
2021/12/25 00:16:39;;;;;;;133.65;36.30;;;;;;;;;;5043259;28;20452;-51
2021/12/25 00:19:06;;;;;;;113.07;33.97;;;;;;;;;;5045726;28;20032;-51
2021/12/25 00:21:32;;;;;;;140.63;32.38;;;;;;;;;;5039458;28;20024;-50
2021/12/25 00:23:58;;;;;;;146.32;26.63;;;;;;;;;;5037284;28;20424;-50
2021/12/25 00:26:41;;;;;;;105.57;23.92;;;;;;;;;;5039433;28;20456;-50
2021/12/25 00:29:32;;;;;;;91.05;24.33;;;;;;;;;;5038741;28;20549;-50
2021/12/25 00:32:09;;;;;;;103.32;22.83;;;;;;;;;;5035591;28;20052;-49
2021/12/25 00:34:36;;;;;;;93.00;20.75;;;;;;;;;;5035024;28;20033;-53
2021/12/25 00:37:03;;;;;;;80.85;19.38;;;;;;;;;;5039704;28;20460;-53
2021/12/25 00:39:29;;;;;;;92.30;17.33;;;;;;;;;;5035679;28;20086;-52
2021/12/25 00:42:00;;;;;;;88.00;17.88;;;;;;;;;;5034357;28;20045;-53
2021/12/25 00:44:26;;;;;;;99.63;16.70;;;;;;;;;;5036806;28;20310;-53
2021/12/25 00:46:52;;;;;;;132.95;18.00;;;;;;;;;;5036888;28;20041;-53
2021/12/25 00:49:18;;;;;;;99.40;17.38;;;;;;;;;;5035816;28;20588;-51
2021/12/25 00:51:44;;;;;;;91.35;17.48;;;;;;;;;;5039428;28;20523;-50
2021/12/25 00:54:10;;;;;;;126.18;18.83;;;;;;;;;;5034533;28;20037;-50
2021/12/25 00:56:36;;;;;;;95.40;16.00;;;;;;;;;;5044173;28;20028;-53
2021/12/25 00:59:01;;;;;;;104.60;17.85;;;;;;;;;;5036739;28;20467;-52
2021/12/25 01:01:27;;;;;;;93.88;17.20;;;;;;;;;;5037633;28;20064;-52
2021/12/25 01:03:53;;;;;;;78.63;17.88;;;;;;;;;;5032378;28;20061;-50
2021/12/25 01:06:19;;;;;;;91.97;16.45;;;;;;;;;;5034921;28;23074;-48
2021/12/25 01:08:45;;;;;;;82.68;17.35;;;;;;;;;;5031391;28;20120;-49
2021/12/25 01:11:10;;;;;;;85.97;18.67;;;;;;;;;;5038465;28;20032;-51
2021/12/25 01:13:42;;;;;;;83.57;19.10;;;;;;;;;;5036460;28;20039;-53
2021/12/25 01:24:35;;;;;;;89.07;17.15;;;;;;;;;;5035871;28;20115;-52
2021/12/25 01:37:57;;;;;;;55.13;9.60;;;;;;;;;;5036140;28;20104;-53
2021/12/25 01:40:44;;;;;;;64.95;9.35;;;;;;;;;;5034267;28;20025;-54
2021/12/25 01:48:39;;;;;;;54.60;4.65;;;;;;;;;;5030515;28;20037;-52
2021/12/25 01:51:06;;;;;;;35.15;4.13;;;;;;;;;;5031994;28;20036;-52
2021/12/25 01:53:32;;;;;;;46.20;5.20;;;;;;;;;;5032547;28;20036;-48
2021/12/25 01:56:01;;;;;;;27.67;4.68;;;;;;;;;;5033797;28;20029;-48
2021/12/25 01:58:27;;;;;;;28.90;5.03;;;;;;;;;;5033161;28;20037;-51
2021/12/25 02:00:56;;;;;;;61.70;5.00;;;;;;;;;;5038733;28;20091;-48
2021/12/25 02:03:24;;;;;;;39.95;4.68;;;;;;;;;;5037638;28;20055;-51
2021/12/25 02:05:50;;;;;;;47.90;4.22;;;;;;;;;;5035521;28;20090;-51
2021/12/25 02:08:17;;;;;;;49.45;3.35;;;;;;;;;;5035765;28;20119;-53
2021/12/25 02:10:43;;;;;;;59.45;5.30;;;;;;;;;;5039138;28;20037;-48
2021/12/25 02:13:11;;;;;;;44.25;5.68;;;;;;;;;;5034017;28;20021;-50
2021/12/25 02:15:37;;;;;;;35.75;3.67;;;;;;;;;;5039608;28;20028;-50
2021/12/25 02:18:15;;;;;;;39.13;3.65;;;;;;;;;;5032702;28;20052;-52
2021/12/25 02:20:50;;;;;;;55.53;5.65;;;;;;;;;;5028747;28;20610;-52
2021/12/25 02:23:21;;;;;;;38.60;3.83;;;;;;;;;;5040344;28;20040;-51
2021/12/25 02:25:52;;;;;;;49.35;5.55;;;;;;;;;;5040008;28;20518;-52
2021/12/25 02:28:19;;;;;;;56.65;4.25;;;;;;;;;;5039226;28;20065;-50
2021/12/25 02:30:47;;;;;;;21.77;2.67;;;;;;;;;;5037063;28;20108;-51
2021/12/25 02:33:13;;;;;;;34.05;3.28;;;;;;;;;;5033993;28;20082;-49
2021/12/25 02:35:39;;;;;;;39.97;2.58;;;;;;;;;;5035549;28;20033;-50
2021/12/25 02:38:05;;;;;;;39.33;3.30;;;;;;;;;;5029226;28;20021;-49
2021/12/25 02:40:31;;;;;;;32.90;3.35;;;;;;;;;;5035452;28;20028;-51
2021/12/25 02:42:58;;;;;;;37.65;2.55;;;;;;;;;;5036054;28;21134;-52
2021/12/25 02:45:24;;;;;;;38.92;2.58;;;;;;;;;;5040533;28;20024;-51
2021/12/25 02:47:52;;;;;;;30.33;4.07;;;;;;;;;;5037129;28;20587;-50
2021/12/25 02:50:23;;;;;;;43.15;4.22;;;;;;;;;;5039414;28;20033;-49
2021/12/25 02:52:49;;;;;;;28.35;3.33;;;;;;;;;;5037112;28;20024;-51
2021/12/25 02:55:14;;;;;;;21.55;2.80;;;;;;;;;;5036098;28;20093;-52
2021/12/25 02:57:40;;;;;;;51.60;4.60;;;;;;;;;;5037506;28;20211;-49
2021/12/25 03:00:08;;;;;;;33.55;3.70;;;;;;;;;;5034819;28;20047;-48
2021/12/25 03:02:34;;;;;;;34.92;2.75;;;;;;;;;;5038323;28;20529;-48
2021/12/25 03:05:00;;;;;;;35.58;3.10;;;;;;;;;;5040300;28;20029;-49
2021/12/25 03:07:26;;;;;;;38.40;3.30;;;;;;;;;;5036636;28;20025;-49
2021/12/25 03:09:51;;;;;;;29.10;2.47;;;;;;;;;;5032352;28;20476;-48
2021/12/25 03:12:25;;;;;;;58.22;3.65;;;;;;;;;;5035078;28;20041;-52
2021/12/25 03:15:13;;;;;;;44.00;3.42;;;;;;;;;;5033934;28;20065;-49
2021/12/25 03:17:39;;;;;;;25.63;2.63;;;;;;;;;;5040051;28;20500;-50
2021/12/25 03:20:07;;;;;;;43.38;2.70;;;;;;;;;;5036038;28;20048;-49
2021/12/25 03:22:33;;;;;;;34.22;3.40;;;;;;;;;;5037995;28;20040;-48
2021/12/25 03:24:59;;;;;;;38.72;3.30;;;;;;;;;;5035918;28;20036;-52
2021/12/25 03:27:24;;;;;;;27.13;3.63;;;;;;;;;;5033431;28;20041;-48
2021/12/25 03:29:50;;;;;;;42.55;2.90;;;;;;;;;;5034289;28;20960;-51
2021/12/25 03:32:16;;;;;;;26.90;2.08;;;;;;;;;;5034141;28;20136;-52
2021/12/25 03:34:42;;;;;;;30.45;2.88;;;;;;;;;;5033903;28;20061;-51
2021/12/25 03:37:07;;;;;;;29.02;4.00;;;;;;;;;;5034561;28;20060;-51
2021/12/25 03:39:33;;;;;;;19.35;1.98;;;;;;;;;;5032700;28;20091;-53
2021/12/25 03:41:59;;;;;;;28.95;2.88;;;;;;;;;;5034058;28;20100;-50
2021/12/25 03:44:26;;;;;;;21.48;2.80;;;;;;;;;;5034121;28;20646;-53
2021/12/25 03:46:53;;;;;;;27.13;3.15;;;;;;;;;;5036332;28;20429;-49
2021/12/25 03:49:28;;;;;;;32.47;3.28;;;;;;;;;;5030994;28;20262;-51
2021/12/25 04:00:06;;;;;;;28.67;2.30;;;;;;;;;;5035908;28;20094;-52
2021/12/25 04:02:42;;;;;;;44.25;2.15;;;;;;;;;;5036491;28;20036;-47
2021/12/25 04:05:15;;;;;;;33.88;2.10;;;;;;;;;;5038931;28;20037;-52
2021/12/25 04:10:15;;;;;;;46.17;2.92;;;;;;;;;;5038414;28;20267;-47
2021/12/25 04:12:41;;;;;;;28.08;2.95;;;;;;;;;;5039628;28;20291;-48
2021/12/25 04:15:07;;;;;;;21.00;2.22;;;;;;;;;;5039683;28;20038;-52
2021/12/25 04:17:32;;;;;;;27.20;2.20;;;;;;;;;;5039278;28;20341;-51
2021/12/25 04:19:58;;;;;;;37.28;2.70;;;;;;;;;;5037276;28;20045;-50
2021/12/25 04:22:30;;;;;;;15.43;2.20;;;;;;;;;;5035582;28;20021;-49
2021/12/25 04:24:56;;;;;;;35.17;2.17;;;;;;;;;;5040499;28;20033;-50
2021/12/25 04:27:22;;;;;;;26.83;2.00;;;;;;;;;;5034808;28;20024;-47
2021/12/25 04:29:55;;;;;;;38.85;3.25;;;;;;;;;;5034176;28;20485;-49
2021/12/25 05:02:34;;;;;;;29.65;4.72;;;;;;;;;;5037313;28;20419;-50
2021/12/25 05:05:02;;;;;;;23.50;2.72;;;;;;;;;;5033934;28;20059;-49
2021/12/25 05:07:28;;;;;;;21.88;2.78;;;;;;;;;;5034066;28;20025;-52
2021/12/25 05:09:57;;;;;;;20.50;2.58;;;;;;;;;;5033172;28;20052;-50
2021/12/25 05:12:22;;;;;;;32.63;3.67;;;;;;;;;;5033286;28;20037;-50
2021/12/25 05:14:48;;;;;;;20.00;3.20;;;;;;;;;;5030237;28;20083;-51
2021/12/25 05:17:13;;;;;;;18.15;2.67;;;;;;;;;;5038942;28;20447;-49
2021/12/25 05:19:39;;;;;;;18.25;2.63;;;;;;;;;;5036600;28;20029;-49
2021/12/25 05:22:05;;;;;;;30.65;3.80;;;;;;;;;;5031005;28;20099;-49
2021/12/25 05:24:31;;;;;;;33.33;3.45;;;;;;;;;;5033934;28;20056;-49
2021/12/25 05:26:57;;;;;;;30.17;2.95;;;;;;;;;;5041666;28;20056;-49
2021/12/25 05:29:25;;;;;;;19.70;3.10;;;;;;;;;;5039469;28;20032;-51
2021/12/25 05:31:52;;;;;;;18.55;2.50;;;;;;;;;;5033150;28;20037;-54
2021/12/25 05:34:18;;;;;;;19.98;2.40;;;;;;;;;;5036473;28;20032;-50
2021/12/25 05:36:44;;;;;;;14.55;3.58;;;;;;;;;;5035708;28;20142;-54
2021/12/25 05:39:12;;;;;;;17.60;2.33;;;;;;;;;;5036664;28;21981;-53
2021/12/25 05:41:38;;;;;;;14.00;2.63;;;;;;;;;;5034345;28;20029;-53
2021/12/25 05:44:04;;;;;;;29.38;3.05;;;;;;;;;;5039853;28;20035;-53
2021/12/25 05:46:30;;;;;;;20.02;2.63;;;;;;;;;;5037392;28;20036;-53
2021/12/25 05:48:55;;;;;;;33.63;2.88;;;;;;;;;;5033080;28;20420;-52
2021/12/25 05:51:21;;;;;;;16.73;2.10;;;;;;;;;;5035644;28;20246;-51
2021/12/25 05:53:47;;;;;;;20.05;2.40;;;;;;;;;;5035790;28;20028;-49
2021/12/25 05:56:13;;;;;;;17.90;2.53;;;;;;;;;;5034302;28;20558;-52
2021/12/25 05:58:38;;;;;;;15.65;2.42;;;;;;;;;;5034902;28;20029;-53
2021/12/25 06:01:05;;;;;;;26.90;3.50;;;;;;;;;;5031812;28;20038;-53
2021/12/25 06:03:31;;;;;;;29.73;2.58;;;;;;;;;;5036350;28;20025;-53
2021/12/25 06:05:57;;;;;;;16.52;3.15;;;;;;;;;;5033450;28;20038;-49
2021/12/25 06:08:24;;;;;;;31.90;2.88;;;;;;;;;;5030741;28;20041;-51
2021/12/25 06:10:50;;;;;;;25.50;2.38;;;;;;;;;;5036278;28;20598;-47
2021/12/25 06:13:19;;;;;;;24.75;2.08;;;;;;;;;;5033696;28;20171;-50
2021/12/25 06:15:44;;;;;;;30.42;3.38;;;;;;;;;;5027942;28;20036;-48
2021/12/25 06:18:10;;;;;;;24.80;3.15;;;;;;;;;;5033299;28;20025;-51
2021/12/25 06:20:37;;;;;;;24.63;2.90;;;;;;;;;;5029217;28;20511;-49
2021/12/25 06:23:02;;;;;;;19.27;2.45;;;;;;;;;;5040136;28;20207;-48
2021/12/25 06:25:28;;;;;;;18.50;2.67;;;;;;;;;;5031586;28;20534;-51
2021/12/25 06:27:54;;;;;;;19.83;2.88;;;;;;;;;;5032827;28;20029;-48
2021/12/25 06:30:20;;;;;;;18.02;2.45;;;;;;;;;;5032118;28;20215;-52
2021/12/25 06:32:45;;;;;;;12.20;2.22;;;;;;;;;;5027932;28;20166;-50
2021/12/25 06:35:12;;;;;;;23.27;2.13;;;;;;;;;;5026469;28;20044;-48
2021/12/25 06:37:40;;;;;;;20.25;2.90;;;;;;;;;;5025794;28;20029;-49
2021/12/25 06:40:08;;;;;;;30.13;3.45;;;;;;;;;;5035859;28;20063;-51
2021/12/25 06:42:33;;;;;;;28.63;2.22;;;;;;;;;;5031868;28;20033;-50
2021/12/25 06:44:59;;;;;;;14.10;2.25;;;;;;;;;;5035254;28;20039;-49
2021/12/25 06:47:24;;;;;;;33.67;3.13;;;;;;;;;;5038605;28;20032;-48
2021/12/25 06:49:50;;;;;;;21.95;2.67;;;;;;;;;;5028949;28;20025;-52
2021/12/25 06:52:15;;;;;;;23.55;3.75;;;;;;;;;;5030852;28;20033;-54
2021/12/25 06:54:41;;;;;;;19.60;3.42;;;;;;;;;;5033938;28;20037;-52
2021/12/25 06:57:06;;;;;;;18.35;3.40;;;;;;;;;;5041144;28;20233;-52
2021/12/25 06:59:32;;;;;;;16.05;2.45;;;;;;;;;;5035684;28;20055;-52
2021/12/25 07:01:58;;;;;;;19.83;3.55;;;;;;;;;;5034208;28;20032;-53
2021/12/25 07:04:23;;;;;;;24.42;3.70;;;;;;;;;;5037030;28;20458;-51
2021/12/25 07:06:49;;;;;;;20.02;3.60;;;;;;;;;;5031323;28;20389;-49
2021/12/25 07:09:14;;;;;;;24.00;4.45;;;;;;;;;;5033113;28;20045;-51
2021/12/25 07:11:40;;;;;;;37.28;4.88;;;;;;;;;;5040760;28;20418;-53
2021/12/25 07:14:08;;;;;;;24.00;3.67;;;;;;;;;;5038057;28;20033;-52
2021/12/25 07:16:34;;;;;;;26.10;3.75;;;;;;;;;;5031061;28;20037;-47
2021/12/25 07:18:59;;;;;;;25.15;3.83;;;;;;;;;;5031519;28;20408;-48
2021/12/25 07:21:25;;;;;;;26.70;3.88;;;;;;;;;;5031072;28;20029;-47
2021/12/25 07:23:51;;;;;;;16.25;2.53;;;;;;;;;;5033537;28;20037;-50
2021/12/25 07:26:17;;;;;;;18.38;3.05;;;;;;;;;;5026981;28;20029;-50
2021/12/25 07:28:44;;;;;;;26.23;3.67;;;;;;;;;;5038345;28;20029;-50
2021/12/25 07:31:09;;;;;;;24.35;2.90;;;;;;;;;;5033578;28;20167;-49
2021/12/25 07:33:37;;;;;;;20.65;2.85;;;;;;;;;;5038302;28;20545;-50
2021/12/25 07:36:03;;;;;;;21.17;3.60;;;;;;;;;;5038908;28;20039;-48
2021/12/25 07:38:29;;;;;;;20.02;3.28;;;;;;;;;;5040828;28;20075;-49
2021/12/25 07:40:55;;;;;;;27.13;3.35;;;;;;;;;;5045000;28;20033;-48
2021/12/25 07:43:21;;;;;;;17.02;3.47;;;;;;;;;;5038643;28;20127;-49
2021/12/25 07:45:48;;;;;;;28.90;3.00;;;;;;;;;;5046341;28;20566;-51
2021/12/25 07:48:14;;;;;;;24.17;3.20;;;;;;;;;;5033551;28;20061;-50
2021/12/25 07:50:40;;;;;;;24.55;2.33;;;;;;;;;;5038332;28;20116;-51
2021/12/25 07:53:07;;;;;;;17.15;2.78;;;;;;;;;;5039134;28;20578;-52
2021/12/25 07:55:33;;;;;;;17.95;2.03;;;;;;;;;;5033888;28;20041;-52
2021/12/25 07:57:59;;;;;;;23.35;2.90;;;;;;;;;;5038541;28;20400;-52
2021/12/25 08:00:25;;;;;;;24.08;2.78;;;;;;;;;;5046143;28;20072;-50
2021/12/25 08:02:51;;;;;;;17.50;4.00;;;;;;;;;;5044929;28;20033;-53
2021/12/25 08:05:17;;;;;;;28.25;3.78;;;;;;;;;;5036438;28;20033;-52
2021/12/25 08:07:42;;;;;;;25.58;2.78;;;;;;;;;;5035906;28;20018;-53
2021/12/25 08:10:17;;;;;;;21.92;2.42;;;;;;;;;;5036652;28;20037;-54
2021/12/25 08:13:00;;;;;;;32.53;3.63;;;;;;;;;;5033616;28;20397;-53
2021/12/25 08:15:29;;;;;;;30.50;5.65;;;;;;;;;;5034099;28;20116;-52
2021/12/25 08:17:56;;;;;;;35.10;4.20;;;;;;;;;;5034896;28;20021;-50
2021/12/25 08:20:22;;;;;;;30.05;5.40;;;;;;;;;;5040775;28;20032;-50
2021/12/25 08:22:47;;;;;;;27.55;4.28;;;;;;;;;;5038249;28;20106;-49
2021/12/25 08:25:14;;;;;;;51.20;7.50;;;;;;;;;;5023164;28;20040;-49
2021/12/25 08:27:43;;;;;;;29.85;4.55;;;;;;;;;;5039276;28;20057;-49
2021/12/25 08:30:11;;;;;;;29.92;4.35;;;;;;;;;;5034883;28;20465;-50
2021/12/25 08:32:39;;;;;;;24.77;3.30;;;;;;;;;;5043239;28;20024;-50
2021/12/25 08:35:05;;;;;;;18.52;2.53;;;;;;;;;;5037641;28;20162;-50
2021/12/25 08:37:31;;;;;;;26.90;4.80;;;;;;;;;;5029094;28;20029;-49
2021/12/25 08:39:57;;;;;;;27.70;3.92;;;;;;;;;;5037036;28;20387;-52
2021/12/25 08:42:23;;;;;;;35.97;4.78;;;;;;;;;;5028428;28;20022;-50
2021/12/25 08:47:19;;;;;;;26.40;3.58;;;;;;;;;;5034858;28;20029;-54
2021/12/25 08:49:44;;;;;;;20.40;3.50;;;;;;;;;;5038089;28;20025;-53
2021/12/25 08:52:16;;;;;;;24.77;3.97;;;;;;;;;;5034946;28;20424;-51
2021/12/25 08:54:44;;;;;;;29.30;4.45;;;;;;;;;;5031122;28;20568;-50
2021/12/25 08:57:10;;;;;;;21.10;2.90;;;;;;;;;;5036794;28;20108;-54
2021/12/25 08:59:38;;;;;;;35.97;3.55;;;;;;;;;;5043634;28;20094;-50
2021/12/25 09:02:08;;;;;;;29.67;3.88;;;;;;;;;;5034734;28;20028;-52
2021/12/25 09:04:35;;;;;;;37.00;3.58;;;;;;;;;;5043390;28;20199;-53
2021/12/25 09:07:01;;;;;;;28.00;3.58;;;;;;;;;;5036892;28;20445;-52
2021/12/25 09:09:27;;;;;;;35.55;4.03;;;;;;;;;;5042339;28;20639;-53
2021/12/25 09:11:52;;;;;;;39.97;4.55;;;;;;;;;;5054305;28;20041;-50
2021/12/25 09:14:18;;;;;;;31.33;3.60;;;;;;;;;;5033274;28;20045;-52
2021/12/25 09:16:44;;;;;;;37.90;3.50;;;;;;;;;;5051776;28;20036;-53
2021/12/25 09:19:09;;;;;;;23.50;3.42;;;;;;;;;;5033981;28;20558;-50
2021/12/25 09:21:35;;;;;;;32.08;2.60;;;;;;;;;;5037743;28;20108;-49
2021/12/25 09:24:01;;;;;;;24.10;3.63;;;;;;;;;;5032664;28;20068;-50
2021/12/25 09:26:26;;;;;;;20.48;3.15;;;;;;;;;;5039747;28;20090;-49
2021/12/25 09:28:52;;;;;;;21.50;2.47;;;;;;;;;;5042390;28;20068;-52
2021/12/25 09:31:18;;;;;;;28.15;3.03;;;;;;;;;;5036346;28;20484;-49
2021/12/25 09:33:44;;;;;;;25.15;3.92;;;;;;;;;;5033607;28;20032;-49
2021/12/25 09:36:09;;;;;;;26.35;3.55;;;;;;;;;;5036176;28;20488;-55
2021/12/25 09:38:35;;;;;;;47.90;4.95;;;;;;;;;;5032343;28;20149;-50
2021/12/25 09:41:03;;;;;;;33.30;3.85;;;;;;;;;;5033693;28;20061;-53
2021/12/25 09:43:29;;;;;;;29.23;4.00;;;;;;;;;;5039764;28;20031;-49
2021/12/25 09:45:54;;;;;;;36.97;3.42;;;;;;;;;;5039217;28;20044;-52
2021/12/25 09:48:21;;;;;;;29.00;3.70;;;;;;;;;;5034552;28;20029;-52
2021/12/25 09:50:47;;;;;;;33.50;3.75;;;;;;;;;;5044841;28;20032;-50
2021/12/25 09:53:15;;;;;;;20.95;2.03;;;;;;;;;;5045533;28;20091;-48
2021/12/25 09:55:42;;;;;;;31.90;3.47;;;;;;;;;;5043180;28;20434;-49
2021/12/25 09:58:07;;;;;;;17.42;3.25;;;;;;;;;;5034997;28;20037;-49
2021/12/25 10:00:37;;;;;;;30.65;3.42;;;;;;;;;;5037159;28;20492;-52
2021/12/25 10:03:03;;;;;;;41.72;3.90;;;;;;;;;;5037743;28;20069;-53
2021/12/25 10:05:43;;;;;;;38.47;3.17;;;;;;;;;;5037231;28;20056;-52
2021/12/25 10:08:11;;;;;;;29.15;3.08;;;;;;;;;;5033786;28;20053;-53
2021/12/25 10:10:55;;;;;;;25.58;3.30;;;;;;;;;;5039180;28;20484;-52
2021/12/25 10:13:39;;;;;;;27.98;5.38;;;;;;;;;;5038065;28;20021;-53
2021/12/25 10:16:37;;;;;;;37.67;4.55;;;;;;;;;;5035783;28;20245;-51
2021/12/25 10:19:16;;;;;;;31.88;3.42;;;;;;;;;;5017042;28;20044;-54
2021/12/25 10:21:42;;;;;;;25.30;3.63;;;;;;;;;;5035855;28;20106;-54
2021/12/25 10:24:27;;;;;;;28.20;3.60;;;;;;;;;;5037034;28;20051;-50
2021/12/25 10:27:07;;;;;;;24.98;2.60;;;;;;;;;;5036253;28;20029;-53
2021/12/25 10:29:32;;;;;;;22.30;2.60;;;;;;;;;;5034968;28;20039;-51
2021/12/25 10:32:12;;;;;;;18.17;2.60;;;;;;;;;;5032383;28;20037;-54
2021/12/25 10:34:37;;;;;;;46.10;3.33;;;;;;;;;;5033029;28;20033;-54
2021/12/25 10:37:12;;;;;;;26.83;2.60;;;;;;;;;;5030005;28;20075;-52
2021/12/25 10:39:38;;;;;;;26.80;3.20;;;;;;;;;;5035088;28;20036;-52
2021/12/25 10:42:11;;;;;;;34.30;3.28;;;;;;;;;;5042720;28;20115;-54
2021/12/25 10:44:51;;;;;;;26.60;3.00;;;;;;;;;;5037019;28;20503;-53
2021/12/25 10:47:26;;;;;;;36.38;3.45;;;;;;;;;;5037253;28;20047;-54
2021/12/25 10:49:57;;;;;;;51.42;4.55;;;;;;;;;;5039443;28;20499;-50
2021/12/25 10:52:31;;;;;;;40.97;3.72;;;;;;;;;;5030265;28;20470;-50
2021/12/25 10:55:17;;;;;;;39.72;3.10;;;;;;;;;;5030939;28;20049;-50
2021/12/25 10:57:49;;;;;;;45.45;3.60;;;;;;;;;;5031690;28;20017;-51
2021/12/25 11:00:21;;;;;;;35.03;3.70;;;;;;;;;;5038102;28;20020;-50
2021/12/25 11:02:51;;;;;;;46.97;3.97;;;;;;;;;;5037458;28;20024;-53
2021/12/25 11:05:22;;;;;;;37.45;5.00;;;;;;;;;;5044868;28;20057;-53
2021/12/25 11:08:00;;;;;;;38.25;4.18;;;;;;;;;;5036167;28;20404;-52
2021/12/25 11:10:25;;;;;;;48.28;5.93;;;;;;;;;;5038704;28;20021;-51
2021/12/25 11:12:51;;;;;;;38.13;3.70;;;;;;;;;;5033713;28;20535;-52
2021/12/25 11:15:19;;;;;;;22.20;2.50;;;;;;;;;;5041184;28;20033;-48
2021/12/25 11:17:50;;;;;;;37.13;4.50;;;;;;;;;;5039932;28;20114;-53
2021/12/25 11:20:25;;;;;;;43.22;3.45;;;;;;;;;;5038006;28;20029;-52
2021/12/25 11:22:57;;;;;;;26.42;3.90;;;;;;;;;;5039714;28;20045;-52
2021/12/25 11:25:26;;;;;;;11.25;2.25;;;;;;;;;;5045878;28;20029;-53
2021/12/25 11:27:54;;;;;;;38.58;5.03;;;;;;;;;;5027597;28;20025;-49
2021/12/25 11:30:21;;;;;;;18.95;4.03;;;;;;;;;;5033197;28;20045;-49
2021/12/25 11:32:49;;;;;;;22.90;4.70;;;;;;;;;;5043291;28;20034;-50
2021/12/25 11:35:17;;;;;;;44.75;8.27;;;;;;;;;;5030928;28;20025;-48
2021/12/25 11:37:43;;;;;;;26.20;4.82;;;;;;;;;;5033001;28;20029;-53
2021/12/25 11:40:11;;;;;;;59.53;7.55;;;;;;;;;;5037622;28;20059;-50
2021/12/25 11:42:42;;;;;;;30.73;3.35;;;;;;;;;;5033933;28;20029;-54
2021/12/25 11:45:12;;;;;;;46.75;7.65;;;;;;;;;;5034334;28;20289;-51
2021/12/25 11:47:39;;;;;;;26.40;3.75;;;;;;;;;;5030806;28;20488;-50
2021/12/25 11:50:29;;;;;;;49.38;8.07;;;;;;;;;;5038660;28;20032;-54
2021/12/25 11:53:05;;;;;;;36.05;5.10;;;;;;;;;;5030816;28;20044;-52
2021/12/25 11:58:25;;;;;;;38.65;5.28;;;;;;;;;;5038917;28;20057;-48
2021/12/25 12:00:52;;;;;;;64.07;6.10;;;;;;;;;;5038555;28;20461;-51
2021/12/25 12:03:46;;;;;;;27.77;4.57;;;;;;;;;;5030782;28;20032;-48
2021/12/25 12:06:14;;;;;;;41.85;5.13;;;;;;;;;;5036585;28;20025;-49
2021/12/25 12:08:54;;;;;;;55.67;7.32;;;;;;;;;;5038779;28;20049;-48
2021/12/25 12:11:26;;;;;;;34.03;3.50;;;;;;;;;;5035876;28;20446;-49
2021/12/25 12:14:21;;;;;;;45.63;4.90;;;;;;;;;;5038070;28;20458;-52
2021/12/25 12:17:20;;;;;;;26.98;4.95;;;;;;;;;;5022031;28;20175;-53
2021/12/25 12:19:48;;;;;;;50.60;10.75;;;;;;;;;;5034342;28;20032;-54
2021/12/25 12:22:31;;;;;;;26.45;4.32;;;;;;;;;;5036089;28;20059;-53
2021/12/25 12:27:42;;;;;;;38.20;4.28;;;;;;;;;;5035660;28;20032;-50
2021/12/25 12:30:52;;;;;;;32.17;5.28;;;;;;;;;;5032827;28;20037;-52
2021/12/25 12:33:18;;;;;;;38.72;4.40;;;;;;;;;;5038406;28;20029;-55
2021/12/25 12:35:46;;;;;;;40.08;5.45;;;;;;;;;;5036053;28;20048;-51
2021/12/25 12:38:42;;;;;;;35.28;3.85;;;;;;;;;;5039601;28;20111;-49
2021/12/25 12:41:25;;;;;;;37.05;4.57;;;;;;;;;;5042208;28;20071;-52
2021/12/25 12:44:13;;;;;;;48.80;5.07;;;;;;;;;;5035696;28;20071;-51
2021/12/25 12:46:51;;;;;;;35.65;4.50;;;;;;;;;;5035649;28;20034;-51
2021/12/25 12:49:26;;;;;;;37.65;4.03;;;;;;;;;;5040987;28;20131;-52
2021/12/25 12:52:11;;;;;;;33.55;4.78;;;;;;;;;;5035077;28;20495;-53
2021/12/25 12:54:53;;;;;;;27.45;4.25;;;;;;;;;;5030880;28;20033;-50
2021/12/25 12:57:23;;;;;;;53.47;5.70;;;;;;;;;;5036449;28;20033;-48
2021/12/25 12:59:50;;;;;;;57.30;4.90;;;;;;;;;;5039955;28;20065;-49
2021/12/25 13:02:16;;;;;;;48.08;5.45;;;;;;;;;;5045487;28;20029;-51
2021/12/25 13:04:43;;;;;;;45.50;5.45;;;;;;;;;;5047099;28;20033;-49
2021/12/25 13:07:14;;;;;;;60.00;6.10;;;;;;;;;;5043163;28;20068;-48
2021/12/25 13:09:50;;;;;;;41.38;5.43;;;;;;;;;;5037146;28;20034;-49
2021/12/25 13:12:37;;;;;;;57.05;5.65;;;;;;;;;;5042512;28;20111;-49
2021/12/25 13:15:10;;;;;;;36.17;6.47;;;;;;;;;;5030789;28;20068;-49
2021/12/25 13:17:37;;;;;;;50.90;6.82;;;;;;;;;;5033823;28;20056;-49
2021/12/25 13:20:04;;;;;;;52.25;8.95;;;;;;;;;;5037062;28;20044;-48
2021/12/25 13:22:30;;;;;;;49.97;6.45;;;;;;;;;;5039523;28;20020;-52
2021/12/25 13:25:08;;;;;;;28.63;5.22;;;;;;;;;;5043153;28;20043;-52
2021/12/25 13:27:33;;;;;;;30.65;5.50;;;;;;;;;;5038542;28;20017;-54
2021/12/25 13:30:08;;;;;;;48.78;7.75;;;;;;;;;;5032005;28;20055;-55
2021/12/25 13:32:34;;;;;;;48.45;6.47;;;;;;;;;;5044012;28;20025;-51
2021/12/25 13:35:00;;;;;;;48.75;6.32;;;;;;;;;;5043220;28;20506;-50
2021/12/25 13:37:26;;;;;;;43.40;7.07;;;;;;;;;;5037960;28;20029;-53
2021/12/25 13:39:51;;;;;;;46.17;6.88;;;;;;;;;;5037058;28;20033;-52
2021/12/25 13:42:17;;;;;;;24.52;5.85;;;;;;;;;;5037439;28;20121;-53
2021/12/25 13:44:46;;;;;;;47.38;6.70;;;;;;;;;;5038783;28;20110;-54
2021/12/25 13:47:24;;;;;;;36.03;6.57;;;;;;;;;;5034122;28;20040;-53
2021/12/25 13:49:51;;;;;;;55.22;6.82;;;;;;;;;;5037676;28;20017;-51
2021/12/25 13:52:20;;;;;;;38.10;5.85;;;;;;;;;;5035888;28;20037;-53
2021/12/25 13:54:49;;;;;;;67.50;7.93;;;;;;;;;;5033070;28;20083;-53
2021/12/25 13:57:17;;;;;;;60.63;8.50;;;;;;;;;;5038211;28;20052;-53
2021/12/25 13:59:49;;;;;;;38.83;6.72;;;;;;;;;;5034771;28;20338;-53
2021/12/25 14:02:15;;;;;;;53.20;5.28;;;;;;;;;;5033700;28;20405;-52
2021/12/25 14:04:43;;;;;;;58.70;6.55;;;;;;;;;;5039156;28;20287;-53
2021/12/25 14:07:13;;;;;;;51.70;6.88;;;;;;;;;;5036503;28;20518;-52
2021/12/25 14:09:39;;;;;;;37.70;7.97;;;;;;;;;;5036983;28;20075;-52
2021/12/25 14:12:05;;;;;;;47.80;10.45;;;;;;;;;;5037733;28;20336;-53
2021/12/25 14:14:31;;;;;;;39.65;10.52;;;;;;;;;;5037536;28;20060;-53
2021/12/25 14:16:58;;;;;;;41.88;6.00;;;;;;;;;;5037022;28;20241;-52
2021/12/25 14:19:30;;;;;;;35.70;6.40;;;;;;;;;;5036947;28;20095;-53
2021/12/25 14:22:02;;;;;;;48.65;8.13;;;;;;;;;;5034034;28;20056;-52
2021/12/25 14:24:38;;;;;;;45.70;8.60;;;;;;;;;;5037942;28;20466;-54
2021/12/25 14:27:09;;;;;;;41.10;6.38;;;;;;;;;;5036739;28;20086;-52
2021/12/25 14:29:35;;;;;;;53.13;11.90;;;;;;;;;;5037792;28;20036;-52
2021/12/25 14:32:00;;;;;;;47.55;11.65;;;;;;;;;;5036845;28;20825;-52
2021/12/25 14:34:31;;;;;;;39.20;4.95;;;;;;;;;;5039959;28;20033;-54
2021/12/25 14:36:57;;;;;;;58.78;7.75;;;;;;;;;;5036092;28;20033;-52
2021/12/25 14:39:23;;;;;;;51.70;10.57;;;;;;;;;;5031786;28;20043;-52
2021/12/25 14:41:51;;;;;;;46.40;10.02;;;;;;;;;;5032834;28;20064;-52
2021/12/25 14:44:31;;;;;;;50.58;9.30;;;;;;;;;;5029805;28;20033;-53
2021/12/25 14:47:24;;;;;;;40.90;5.45;;;;;;;;;;5032324;28;20131;-52
2021/12/25 14:49:50;;;;;;;48.38;9.73;;;;;;;;;;5034164;28;20049;-50
2021/12/25 14:52:16;;;;;;;51.70;8.68;;;;;;;;;;5028591;28;20385;-52
2021/12/25 14:54:43;;;;;;;49.80;8.02;;;;;;;;;;5040563;28;20043;-52
2021/12/25 14:57:09;;;;;;;27.83;6.35;;;;;;;;;;5035881;28;20057;-51
2021/12/25 14:59:40;;;;;;;49.10;7.25;;;;;;;;;;5032416;28;20116;-52
2021/12/25 15:02:05;;;;;;;58.85;8.20;;;;;;;;;;5034551;28;20081;-51
2021/12/25 15:04:35;;;;;;;49.75;9.55;;;;;;;;;;5034774;28;20043;-50
2021/12/25 15:07:07;;;;;;;53.55;9.80;;;;;;;;;;5032610;28;20144;-52
2021/12/25 15:09:44;;;;;;;54.90;8.20;;;;;;;;;;5033459;28;20052;-50
2021/12/25 15:12:23;;;;;;;57.00;7.88;;;;;;;;;;5031853;28;20025;-51
2021/12/25 15:14:54;;;;;;;35.60;7.05;;;;;;;;;;5039737;28;20518;-50
2021/12/25 15:17:26;;;;;;;59.17;6.90;;;;;;;;;;5043072;28;20021;-53
2021/12/25 15:20:09;;;;;;;50.88;7.75;;;;;;;;;;5037307;28;20028;-51
2021/12/25 15:22:37;;;;;;;51.47;6.63;;;;;;;;;;5039865;28;20032;-49
2021/12/25 15:25:07;;;;;;;34.63;6.18;;;;;;;;;;5034649;28;20502;-51
2021/12/25 15:27:36;;;;;;;52.53;6.38;;;;;;;;;;5035648;28;20489;-52
2021/12/25 15:30:08;;;;;;;45.03;7.18;;;;;;;;;;5031437;28;20029;-49
2021/12/25 15:32:37;;;;;;;;;;;;;;;;;;5030171;28;20021;-49
2021/12/25 15:35:07;;;;;;;37.67;6.80;;;;;;;;;;5034482;28;20291;-53
2021/12/25 15:37:35;;;;;;;40.58;6.03;;;;;;;;;;5037716;28;20032;-52
2021/12/25 15:40:07;;;;;;;40.25;8.10;;;;;;;;;;5032183;28;20072;-52
2021/12/25 15:42:33;;;;;;;32.58;7.63;;;;;;;;;;5030579;28;20029;-52
2021/12/25 15:44:59;;;;;;;47.75;6.68;;;;;;;;;;5041472;28;20036;-51
2021/12/25 15:47:25;;;;;;;45.17;7.00;;;;;;;;;;5035583;28;20029;-49
2021/12/25 15:49:51;;;;;;;50.33;11.45;;;;;;;;;;5036230;28;20200;-49
2021/12/25 15:52:19;;;;;;;48.30;6.57;;;;;;;;;;5035011;28;20043;-48
2021/12/25 15:54:45;;;;;;;38.05;6.93;;;;;;;;;;5038491;28;20032;-49